sensor_id;sensor_type;location;lat;lon;timestamp;temperature;humidity
25046;DHT22;13044;49.304;12.840;2023-04-01T00:00:25;8.10;99.90
25046;DHT22;13044;49.304;12.840;2023-04-01T00:02:52;8.10;99.90
25046;DHT22;13044;49.304;12.840;2023-04-01T00:05:19;8.20;99.90
25046;DHT22;13044;49.304;12.840;2023-04-01T00:07:46;8.20;99.90
25046;DHT22;13044;49.304;12.840;2023-04-01T00:10:15;8.20;99.90
25046;DHT22;13044;49.304;12.840;2023-04-01T00:12:43;8.10;99.90
25046;DHT22;13044;49.304;12.840;2023-04-01T00:15:11;8.20;99.90
25046;DHT22;13044;49.304;12.840;2023-04-01T00:17:38;8.10;99.90
25046;DHT22;13044;49.304;12.840;2023-04-01T00:20:07;8.10;99.90
25046;DHT22;13044;49.304;12.840;2023-04-01T00:22:35;8.10;99.90
25046;DHT22;13044;49.304;12.840;2023-04-01T00:25:03;8.10;99.90
25046;DHT22;13044;49.304;12.840;2023-04-01T00:27:31;8.10;99.90
25046;DHT22;13044;49.304;12.840;2023-04-01T00:29:58;8.20;99.90
25046;DHT22;13044;49.304;12.840;2023-04-01T00:32:25;8.20;99.90
25046;DHT22;13044;49.304;12.840;2023-04-01T00:34:52;8.10;99.90
25046;DHT22;13044;49.304;12.840;2023-04-01T00:37:20;8.10;99.90
25046;DHT22;13044;49.304;12.840;2023-04-01T00:39:47;8.20;99.90
25046;DHT22;13044;49.304;12.840;2023-04-01T00:42:14;8.10;99.90
25046;DHT22;13044;49.304;12.840;2023-04-01T00:44:42;8.10;99.90
25046;DHT22;13044;49.304;12.840;2023-04-01T00:47:09;8.10;99.90
25046;DHT22;13044;49.304;12.840;2023-04-01T00:49:42;8.10;99.90
25046;DHT22;13044;49.304;12.840;2023-04-01T00:52:14;8.10;99.90
25046;DHT22;13044;49.304;12.840;2023-04-01T00:54:45;8.10;99.90
25046;DHT22;13044;49.304;12.840;2023-04-01T00:57:24;8.10;99.90
25046;DHT22;13044;49.304;12.840;2023-04-01T00:59:55;8.10;99.90
25046;DHT22;13044;49.304;12.840;2023-04-01T01:02:23;8.10;99.90
25046;DHT22;13044;49.304;12.840;2023-04-01T01:04:50;8.10;99.90
25046;DHT22;13044;49.304;12.840;2023-04-01T01:13:03;8.10;99.90
25046;DHT22;13044;49.304;12.840;2023-04-01T01:15:46;8.10;99.90
25046;DHT22;13044;49.304;12.840;2023-04-01T01:18:20;8.10;99.90
25046;DHT22;13044;49.304;12.840;2023-04-01T01:27:16;8.10;99.90
25046;DHT22;13044;49.304;12.840;2023-04-01T01:30:37;8.10;99.90
25046;DHT22;13044;49.304;12.840;2023-04-01T01:36:32;8.10;99.90
25046;DHT22;13044;49.304;12.840;2023-04-01T01:39:04;8.10;99.90
25046;DHT22;13044;49.304;12.840;2023-04-01T01:41:35;8.10;99.90
25046;DHT22;13044;49.304;12.840;2023-04-01T01:44:04;8.20;99.90
25046;DHT22;13044;49.304;12.840;2023-04-01T01:46:33;8.10;99.90
25046;DHT22;13044;49.304;12.840;2023-04-01T01:49:02;8.20;99.90
25046;DHT22;13044;49.304;12.840;2023-04-01T01:51:30;8.20;99.90
25046;DHT22;13044;49.304;12.840;2023-04-01T01:53:57;8.10;99.90
25046;DHT22;13044;49.304;12.840;2023-04-01T01:56:26;8.10;99.90
25046;DHT22;13044;49.304;12.840;2023-04-01T01:59:01;8.10;99.90
25046;DHT22;13044;49.304;12.840;2023-04-01T02:01:32;8.10;99.90
25046;DHT22;13044;49.304;12.840;2023-04-01T02:04:02;8.10;99.90
25046;DHT22;13044;49.304;12.840;2023-04-01T02:06:35;8.20;99.90
25046;DHT22;13044;49.304;12.840;2023-04-01T02:09:07;8.10;99.90
25046;DHT22;13044;49.304;12.840;2023-04-01T02:11:41;8.10;99.90
25046;DHT22;13044;49.304;12.840;2023-04-01T02:14:17;8.10;99.90
25046;DHT22;13044;49.304;12.840;2023-04-01T02:16:53;8.10;99.90
25046;DHT22;13044;49.304;12.840;2023-04-01T02:19:27;8.10;99.90
25046;DHT22;13044;49.304;12.840;2023-04-01T02:22:01;8.10;99.90
25046;DHT22;13044;49.304;12.840;2023-04-01T02:24:31;8.20;99.90
25046;DHT22;13044;49.304;12.840;2023-04-01T02:27:00;8.20;99.90
25046;DHT22;13044;49.304;12.840;2023-04-01T02:29:27;8.20;99.90
25046;DHT22;13044;49.304;12.840;2023-04-01T02:31:54;8.10;99.90
25046;DHT22;13044;49.304;12.840;2023-04-01T02:34:22;8.10;99.90
25046;DHT22;13044;49.304;12.840;2023-04-01T02:36:51;8.10;99.90
25046;DHT22;13044;49.304;12.840;2023-04-01T02:39:19;8.10;99.90
25046;DHT22;13044;49.304;12.840;2023-04-01T02:41:47;8.10;99.90
25046;DHT22;13044;49.304;12.840;2023-04-01T02:44:15;8.20;99.90
25046;DHT22;13044;49.304;12.840;2023-04-01T02:46:42;8.20;99.90
25046;DHT22;13044;49.304;12.840;2023-04-01T02:49:10;8.20;99.90
25046;DHT22;13044;49.304;12.840;2023-04-01T02:51:37;8.20;99.90
25046;DHT22;13044;49.304;12.840;2023-04-01T02:54:04;8.20;99.90
25046;DHT22;13044;49.304;12.840;2023-04-01T02:56:31;8.20;99.90
25046;DHT22;13044;49.304;12.840;2023-04-01T02:58:57;8.20;99.90
25046;DHT22;13044;49.304;12.840;2023-04-01T03:01:24;8.20;99.90
25046;DHT22;13044;49.304;12.840;2023-04-01T03:03:51;8.20;99.90
25046;DHT22;13044;49.304;12.840;2023-04-01T03:06:18;8.30;99.90
25046;DHT22;13044;49.304;12.840;2023-04-01T03:08:45;8.30;99.90
25046;DHT22;13044;49.304;12.840;2023-04-01T03:11:13;8.20;99.90
25046;DHT22;13044;49.304;12.840;2023-04-01T03:13:39;8.20;99.90
25046;DHT22;13044;49.304;12.840;2023-04-01T03:16:07;8.20;99.90
25046;DHT22;13044;49.304;12.840;2023-04-01T03:18:34;8.20;99.90
25046;DHT22;13044;49.304;12.840;2023-04-01T03:21:18;8.20;99.90
25046;DHT22;13044;49.304;12.840;2023-04-01T03:23:50;8.20;99.90
25046;DHT22;13044;49.304;12.840;2023-04-01T03:26:17;8.10;99.90
25046;DHT22;13044;49.304;12.840;2023-04-01T03:28:44;8.20;99.90
25046;DHT22;13044;49.304;12.840;2023-04-01T03:31:11;8.10;99.90
25046;DHT22;13044;49.304;12.840;2023-04-01T03:33:38;8.10;99.90
25046;DHT22;13044;49.304;12.840;2023-04-01T03:36:05;8.20;99.90
25046;DHT22;13044;49.304;12.840;2023-04-01T03:38:36;8.20;99.90
25046;DHT22;13044;49.304;12.840;2023-04-01T03:41:03;8.10;99.90
25046;DHT22;13044;49.304;12.840;2023-04-01T03:43:30;8.20;99.90
25046;DHT22;13044;49.304;12.840;2023-04-01T03:45:57;8.20;99.90
25046;DHT22;13044;49.304;12.840;2023-04-01T03:48:25;8.10;99.90
25046;DHT22;13044;49.304;12.840;2023-04-01T03:50:52;8.20;99.90
25046;DHT22;13044;49.304;12.840;2023-04-01T03:53:19;8.10;99.90
25046;DHT22;13044;49.304;12.840;2023-04-01T03:55:46;8.10;99.90
25046;DHT22;13044;49.304;12.840;2023-04-01T03:58:14;8.10;99.90
25046;DHT22;13044;49.304;12.840;2023-04-01T04:00:40;8.10;99.90
25046;DHT22;13044;49.304;12.840;2023-04-01T04:03:07;8.10;99.90
25046;DHT22;13044;49.304;12.840;2023-04-01T04:05:35;8.10;99.90
25046;DHT22;13044;49.304;12.840;2023-04-01T04:08:02;8.10;99.90
25046;DHT22;13044;49.304;12.840;2023-04-01T04:10:29;8.20;99.90
25046;DHT22;13044;49.304;12.840;2023-04-01T04:12:56;8.20;99.90
25046;DHT22;13044;49.304;12.840;2023-04-01T04:15:23;8.20;99.90
25046;DHT22;13044;49.304;12.840;2023-04-01T04:17:50;8.30;99.90
25046;DHT22;13044;49.304;12.840;2023-04-01T04:20:17;8.20;99.90
25046;DHT22;13044;49.304;12.840;2023-04-01T04:22:44;8.30;99.90
25046;DHT22;13044;49.304;12.840;2023-04-01T04:25:10;8.20;99.90
25046;DHT22;13044;49.304;12.840;2023-04-01T04:27:37;8.30;99.90
25046;DHT22;13044;49.304;12.840;2023-04-01T04:30:06;8.10;99.90
25046;DHT22;13044;49.304;12.840;2023-04-01T04:32:34;8.10;99.90
25046;DHT22;13044;49.304;12.840;2023-04-01T04:35:01;8.00;99.90
25046;DHT22;13044;49.304;12.840;2023-04-01T04:37:28;8.00;99.90
25046;DHT22;13044;49.304;12.840;2023-04-01T04:39:54;8.10;99.90
25046;DHT22;13044;49.304;12.840;2023-04-01T04:42:21;8.00;99.90
25046;DHT22;13044;49.304;12.840;2023-04-01T04:44:48;8.10;99.90
25046;DHT22;13044;49.304;12.840;2023-04-01T04:47:15;8.10;99.90
25046;DHT22;13044;49.304;12.840;2023-04-01T04:49:42;8.10;99.90
25046;DHT22;13044;49.304;12.840;2023-04-01T04:52:09;8.00;99.90
25046;DHT22;13044;49.304;12.840;2023-04-01T04:54:36;8.00;99.90
25046;DHT22;13044;49.304;12.840;2023-04-01T04:57:03;8.10;99.90
25046;DHT22;13044;49.304;12.840;2023-04-01T04:59:30;8.10;99.90
25046;DHT22;13044;49.304;12.840;2023-04-01T05:01:57;8.10;99.90
25046;DHT22;13044;49.304;12.840;2023-04-01T05:04:24;8.10;99.90
25046;DHT22;13044;49.304;12.840;2023-04-01T05:06:51;8.20;99.90
25046;DHT22;13044;49.304;12.840;2023-04-01T05:09:18;8.20;99.90
25046;DHT22;13044;49.304;12.840;2023-04-01T05:11:45;8.20;99.90
25046;DHT22;13044;49.304;12.840;2023-04-01T05:14:14;8.20;99.90
25046;DHT22;13044;49.304;12.840;2023-04-01T05:16:42;8.10;99.90
25046;DHT22;13044;49.304;12.840;2023-04-01T05:19:09;8.10;99.90
25046;DHT22;13044;49.304;12.840;2023-04-01T05:21:36;8.00;99.90
25046;DHT22;13044;49.304;12.840;2023-04-01T05:24:03;8.00;99.90
25046;DHT22;13044;49.304;12.840;2023-04-01T05:26:34;8.10;99.90
25046;DHT22;13044;49.304;12.840;2023-04-01T05:29:01;8.00;99.90
25046;DHT22;13044;49.304;12.840;2023-04-01T05:31:29;8.00;99.90
25046;DHT22;13044;49.304;12.840;2023-04-01T05:33:56;8.00;99.90
25046;DHT22;13044;49.304;12.840;2023-04-01T05:36:23;8.00;99.90
25046;DHT22;13044;49.304;12.840;2023-04-01T05:38:50;8.10;99.90
25046;DHT22;13044;49.304;12.840;2023-04-01T05:41:17;8.10;99.90
25046;DHT22;13044;49.304;12.840;2023-04-01T05:43:44;8.10;99.90
25046;DHT22;13044;49.304;12.840;2023-04-01T05:46:11;8.10;99.90
25046;DHT22;13044;49.304;12.840;2023-04-01T05:48:38;8.20;99.90
25046;DHT22;13044;49.304;12.840;2023-04-01T05:51:05;8.20;99.90
25046;DHT22;13044;49.304;12.840;2023-04-01T05:53:32;8.20;99.90
25046;DHT22;13044;49.304;12.840;2023-04-01T05:56:02;8.10;99.90
25046;DHT22;13044;49.304;12.840;2023-04-01T05:58:30;8.10;99.90
25046;DHT22;13044;49.304;12.840;2023-04-01T06:01:05;8.30;99.90
25046;DHT22;13044;49.304;12.840;2023-04-01T06:03:39;8.30;99.90
25046;DHT22;13044;49.304;12.840;2023-04-01T06:06:14;8.30;99.90
25046;DHT22;13044;49.304;12.840;2023-04-01T06:08:43;8.40;99.90
25046;DHT22;13044;49.304;12.840;2023-04-01T06:11:18;8.30;99.90
25046;DHT22;13044;49.304;12.840;2023-04-01T06:14:10;8.40;99.90
25046;DHT22;13044;49.304;12.840;2023-04-01T06:22:08;8.00;99.90
25046;DHT22;13044;49.304;12.840;2023-04-01T06:25:15;8.00;99.90
25046;DHT22;13044;49.304;12.840;2023-04-01T06:34:24;8.10;99.90
25046;DHT22;13044;49.304;12.840;2023-04-01T06:42:39;8.40;99.90
25046;DHT22;13044;49.304;12.840;2023-04-01T06:46:12;8.50;99.90
25046;DHT22;13044;49.304;12.840;2023-04-01T06:56:18;8.60;99.90
25046;DHT22;13044;49.304;12.840;2023-04-01T07:01:58;8.90;99.90
25046;DHT22;13044;49.304;12.840;2023-04-01T07:04:39;9.00;99.90
25046;DHT22;13044;49.304;12.840;2023-04-01T07:10:31;9.00;99.90
25046;DHT22;13044;49.304;12.840;2023-04-01T07:13:06;8.90;99.90
25046;DHT22;13044;49.304;12.840;2023-04-01T07:15:42;9.00;99.90
25046;DHT22;13044;49.304;12.840;2023-04-01T07:18:29;9.00;99.90
25046;DHT22;13044;49.304;12.840;2023-04-01T07:20:59;9.00;99.90
25046;DHT22;13044;49.304;12.840;2023-04-01T07:23:36;8.90;99.90
25046;DHT22;13044;49.304;12.840;2023-04-01T07:26:20;8.90;99.90
25046;DHT22;13044;49.304;12.840;2023-04-01T07:28:49;8.90;99.90
25046;DHT22;13044;49.304;12.840;2023-04-01T07:34:32;8.90;99.90
25046;DHT22;13044;49.304;12.840;2023-04-01T07:51:01;8.90;99.90
25046;DHT22;13044;49.304;12.840;2023-04-01T07:53:38;9.10;99.90
25046;DHT22;13044;49.304;12.840;2023-04-01T07:56:20;9.10;99.90
25046;DHT22;13044;49.304;12.840;2023-04-01T07:59:35;9.00;99.90
25046;DHT22;13044;49.304;12.840;2023-04-01T08:05:53;9.30;99.90
25046;DHT22;13044;49.304;12.840;2023-04-01T08:20:07;9.70;99.90
25046;DHT22;13044;49.304;12.840;2023-04-01T08:22:52;9.80;99.90
25046;DHT22;13044;49.304;12.840;2023-04-01T08:25:29;10.00;99.90
25046;DHT22;13044;49.304;12.840;2023-04-01T08:28:11;10.00;99.90
25046;DHT22;13044;49.304;12.840;2023-04-01T08:31:09;9.90;99.90
25046;DHT22;13044;49.304;12.840;2023-04-01T08:33:40;9.90;99.90
25046;DHT22;13044;49.304;12.840;2023-04-01T08:36:22;9.90;99.90
25046;DHT22;13044;49.304;12.840;2023-04-01T08:39:48;9.90;99.90
25046;DHT22;13044;49.304;12.840;2023-04-01T08:50:40;9.90;99.90
25046;DHT22;13044;49.304;12.840;2023-04-01T09:13:33;9.90;99.90
25046;DHT22;13044;49.304;12.840;2023-04-01T09:22:36;10.00;99.90
25046;DHT22;13044;49.304;12.840;2023-04-01T09:25:18;10.10;99.90
25046;DHT22;13044;49.304;12.840;2023-04-01T09:27:57;10.20;99.90
25046;DHT22;13044;49.304;12.840;2023-04-01T09:43:23;10.20;99.90
25046;DHT22;13044;49.304;12.840;2023-04-01T10:04:24;10.20;99.90
25046;DHT22;13044;49.304;12.840;2023-04-01T10:12:59;10.20;99.90
25046;DHT22;13044;49.304;12.840;2023-04-01T10:40:36;10.30;99.90
25046;DHT22;13044;49.304;12.840;2023-04-01T10:43:37;10.20;99.90
25046;DHT22;13044;49.304;12.840;2023-04-01T10:52:12;10.10;99.90
25046;DHT22;13044;49.304;12.840;2023-04-01T11:01:12;9.90;99.90
25046;DHT22;13044;49.304;12.840;2023-04-01T11:10:32;10.20;99.90
25046;DHT22;13044;49.304;12.840;2023-04-01T11:25:00;11.10;99.90
25046;DHT22;13044;49.304;12.840;2023-04-01T11:28:21;11.10;99.90
25046;DHT22;13044;49.304;12.840;2023-04-01T11:40:06;11.30;99.90
25046;DHT22;13044;49.304;12.840;2023-04-01T11:51:12;11.40;99.90
25046;DHT22;13044;49.304;12.840;2023-04-01T11:56:49;11.40;99.90
25046;DHT22;13044;49.304;12.840;2023-04-01T12:02:42;11.20;99.90
25046;DHT22;13044;49.304;12.840;2023-04-01T12:11:45;11.00;99.90
25046;DHT22;13044;49.304;12.840;2023-04-01T12:14:52;10.90;99.90
25046;DHT22;13044;49.304;12.840;2023-04-01T12:17:51;11.00;99.90
25046;DHT22;13044;49.304;12.840;2023-04-01T12:26:15;11.10;99.90
25046;DHT22;13044;49.304;12.840;2023-04-01T12:29:36;11.00;99.90
25046;DHT22;13044;49.304;12.840;2023-04-01T12:32:20;10.80;99.90
25046;DHT22;13044;49.304;12.840;2023-04-01T12:35:13;10.80;99.90
25046;DHT22;13044;49.304;12.840;2023-04-01T12:37:47;10.70;99.90
25046;DHT22;13044;49.304;12.840;2023-04-01T12:40:31;10.50;99.90
25046;DHT22;13044;49.304;12.840;2023-04-01T12:47:02;10.20;99.90
25046;DHT22;13044;49.304;12.840;2023-04-01T13:09:45;10.30;99.90
25046;DHT22;13044;49.304;12.840;2023-04-01T13:20:37;10.20;99.90
25046;DHT22;13044;49.304;12.840;2023-04-01T13:23:14;10.20;99.90
25046;DHT22;13044;49.304;12.840;2023-04-01T13:29:30;10.30;99.90
25046;DHT22;13044;49.304;12.840;2023-04-01T13:45:19;10.00;99.90
25046;DHT22;13044;49.304;12.840;2023-04-01T13:57:21;9.70;99.90
25046;DHT22;13044;49.304;12.840;2023-04-01T14:03:28;9.50;99.90
25046;DHT22;13044;49.304;12.840;2023-04-01T14:14:55;9.20;99.90
25046;DHT22;13044;49.304;12.840;2023-04-01T14:26:32;9.30;99.90
25046;DHT22;13044;49.304;12.840;2023-04-01T14:29:43;9.20;99.90
25046;DHT22;13044;49.304;12.840;2023-04-01T14:35:25;9.20;99.90
25046;DHT22;13044;49.304;12.840;2023-04-01T14:38:19;9.30;99.90
25046;DHT22;13044;49.304;12.840;2023-04-01T14:47:08;9.10;99.90
25046;DHT22;13044;49.304;12.840;2023-04-01T14:49:54;9.20;99.90
25046;DHT22;13044;49.304;12.840;2023-04-01T14:52:32;9.30;99.90
25046;DHT22;13044;49.304;12.840;2023-04-01T14:55:19;9.20;99.90
25046;DHT22;13044;49.304;12.840;2023-04-01T15:03:22;9.30;99.90
25046;DHT22;13044;49.304;12.840;2023-04-01T15:08:34;9.10;99.90
25046;DHT22;13044;49.304;12.840;2023-04-01T15:16:56;9.10;99.90
25046;DHT22;13044;49.304;12.840;2023-04-01T15:19:38;9.00;99.90
25046;DHT22;13044;49.304;12.840;2023-04-01T15:22:49;9.00;99.90
25046;DHT22;13044;49.304;12.840;2023-04-01T15:31:27;9.10;99.90
25046;DHT22;13044;49.304;12.840;2023-04-01T15:42:57;9.20;99.90
25046;DHT22;13044;49.304;12.840;2023-04-01T15:48:28;9.20;99.90
25046;DHT22;13044;49.304;12.840;2023-04-01T15:59:44;9.10;99.90
25046;DHT22;13044;49.304;12.840;2023-04-01T16:02:23;9.00;99.90
25046;DHT22;13044;49.304;12.840;2023-04-01T16:05:31;9.00;99.90
25046;DHT22;13044;49.304;12.840;2023-04-01T16:08:17;8.90;99.90
25046;DHT22;13044;49.304;12.840;2023-04-01T16:11:20;8.90;99.90
25046;DHT22;13044;49.304;12.840;2023-04-01T16:20:19;8.90;99.90
25046;DHT22;13044;49.304;12.840;2023-04-01T16:23:16;8.80;99.90
25046;DHT22;13044;49.304;12.840;2023-04-01T16:29:06;8.80;99.90
25046;DHT22;13044;49.304;12.840;2023-04-01T16:34:57;8.80;99.90
25046;DHT22;13044;49.304;12.840;2023-04-01T16:37:46;8.70;99.90
25046;DHT22;13044;49.304;12.840;2023-04-01T16:46:14;8.60;99.90
25046;DHT22;13044;49.304;12.840;2023-04-01T16:51:57;8.60;99.90
25046;DHT22;13044;49.304;12.840;2023-04-01T16:54:40;8.60;99.90
25046;DHT22;13044;49.304;12.840;2023-04-01T16:57:52;8.70;99.90
25046;DHT22;13044;49.304;12.840;2023-04-01T17:00:39;8.70;99.90
25046;DHT22;13044;49.304;12.840;2023-04-01T17:11:48;8.60;99.90
25046;DHT22;13044;49.304;12.840;2023-04-01T17:17:33;8.50;99.90
25046;DHT22;13044;49.304;12.840;2023-04-01T17:20:25;8.50;99.90
25046;DHT22;13044;49.304;12.840;2023-04-01T17:38:10;8.60;99.90
25046;DHT22;13044;49.304;12.840;2023-04-01T17:41:04;8.50;99.90
25046;DHT22;13044;49.304;12.840;2023-04-01T17:49:57;8.60;99.90
25046;DHT22;13044;49.304;12.840;2023-04-01T17:53:09;8.60;99.90
25046;DHT22;13044;49.304;12.840;2023-04-01T17:55:52;8.60;99.90
25046;DHT22;13044;49.304;12.840;2023-04-01T17:58:59;8.60;99.90
25046;DHT22;13044;49.304;12.840;2023-04-01T18:01:54;8.70;99.90
25046;DHT22;13044;49.304;12.840;2023-04-01T18:04:36;8.70;99.90
25046;DHT22;13044;49.304;12.840;2023-04-01T18:10:27;8.70;99.90
25046;DHT22;13044;49.304;12.840;2023-04-01T18:21:19;9.00;99.90
25046;DHT22;13044;49.304;12.840;2023-04-01T18:30:03;8.90;99.90
25046;DHT22;13044;49.304;12.840;2023-04-01T18:33:04;8.80;99.90
25046;DHT22;13044;49.304;12.840;2023-04-01T18:35:58;8.80;99.90
25046;DHT22;13044;49.304;12.840;2023-04-01T18:38:39;8.80;99.90
25046;DHT22;13044;49.304;12.840;2023-04-01T18:41:19;8.80;99.90
25046;DHT22;13044;49.304;12.840;2023-04-01T18:53:29;8.60;99.90
25046;DHT22;13044;49.304;12.840;2023-04-01T18:56:11;8.70;99.90
25046;DHT22;13044;49.304;12.840;2023-04-01T19:06:59;8.60;99.90
25046;DHT22;13044;49.304;12.840;2023-04-01T19:09:42;8.60;99.90
25046;DHT22;13044;49.304;12.840;2023-04-01T19:15:14;8.60;99.90
25046;DHT22;13044;49.304;12.840;2023-04-01T19:21:37;8.60;99.90
25046;DHT22;13044;49.304;12.840;2023-04-01T19:27:23;8.60;99.90
25046;DHT22;13044;49.304;12.840;2023-04-01T19:30:25;8.70;99.90
25046;DHT22;13044;49.304;12.840;2023-04-01T19:42:41;8.60;99.90
25046;DHT22;13044;49.304;12.840;2023-04-01T19:57:05;8.70;99.90
25046;DHT22;13044;49.304;12.840;2023-04-01T20:08:36;8.70;99.90
25046;DHT22;13044;49.304;12.840;2023-04-01T20:11:20;8.70;99.90
25046;DHT22;13044;49.304;12.840;2023-04-01T20:19:48;8.70;99.90
25046;DHT22;13044;49.304;12.840;2023-04-01T20:22:38;8.60;99.90
25046;DHT22;13044;49.304;12.840;2023-04-01T20:26:02;8.60;99.90
25046;DHT22;13044;49.304;12.840;2023-04-01T20:31:58;8.70;99.90
25046;DHT22;13044;49.304;12.840;2023-04-01T20:35:14;8.70;99.90
25046;DHT22;13044;49.304;12.840;2023-04-01T20:37:57;8.70;99.90
25046;DHT22;13044;49.304;12.840;2023-04-01T20:40:45;8.70;99.90
25046;DHT22;13044;49.304;12.840;2023-04-01T20:43:20;8.70;99.90
25046;DHT22;13044;49.304;12.840;2023-04-01T20:51:57;8.60;99.90
25046;DHT22;13044;49.304;12.840;2023-04-01T21:17:24;8.60;99.90
25046;DHT22;13044;49.304;12.840;2023-04-01T21:33:04;8.60;99.90
25046;DHT22;13044;49.304;12.840;2023-04-01T21:49:04;8.70;99.90
25046;DHT22;13044;49.304;12.840;2023-04-01T22:06:48;8.60;99.90
25046;DHT22;13044;49.304;12.840;2023-04-01T22:09:39;8.60;99.90
25046;DHT22;13044;49.304;12.840;2023-04-01T22:12:15;8.60;99.90
25046;DHT22;13044;49.304;12.840;2023-04-01T22:14:53;8.60;99.90
25046;DHT22;13044;49.304;12.840;2023-04-01T22:20:30;8.60;99.90
25046;DHT22;13044;49.304;12.840;2023-04-01T22:23:25;8.50;99.90
25046;DHT22;13044;49.304;12.840;2023-04-01T22:31:54;8.60;99.90
25046;DHT22;13044;49.304;12.840;2023-04-01T22:37:30;8.50;99.90
25046;DHT22;13044;49.304;12.840;2023-04-01T22:40:33;8.50;99.90
25046;DHT22;13044;49.304;12.840;2023-04-01T22:43:14;8.50;99.90
25046;DHT22;13044;49.304;12.840;2023-04-01T22:51:57;8.50;99.90
25046;DHT22;13044;49.304;12.840;2023-04-01T22:54:47;8.50;99.90
25046;DHT22;13044;49.304;12.840;2023-04-01T23:02:47;8.30;99.90
25046;DHT22;13044;49.304;12.840;2023-04-01T23:05:40;8.30;99.90
25046;DHT22;13044;49.304;12.840;2023-04-01T23:11:23;8.40;99.90
25046;DHT22;13044;49.304;12.840;2023-04-01T23:20:06;8.40;99.90
25046;DHT22;13044;49.304;12.840;2023-04-01T23:33:22;8.40;99.90
25046;DHT22;13044;49.304;12.840;2023-04-01T23:36:02;8.40;99.90
25046;DHT22;13044;49.304;12.840;2023-04-01T23:38:42;8.50;99.90
25046;DHT22;13044;49.304;12.840;2023-04-01T23:41:26;8.40;99.90
25046;DHT22;13044;49.304;12.840;2023-04-01T23:44:05;8.50;99.90
25046;DHT22;13044;49.304;12.840;2023-04-01T23:46:35;8.40;99.90
25046;DHT22;13044;49.304;12.840;2023-04-01T23:49:05;8.40;99.90
25046;DHT22;13044;49.304;12.840;2023-04-01T23:51:46;8.40;99.90
25046;DHT22;13044;49.304;12.840;2023-04-01T23:54:24;8.40;99.90
25046;DHT22;13044;49.304;12.840;2023-04-01T23:57:09;8.40;99.90
25046;DHT22;13044;49.304;12.840;2023-04-01T23:59:38;8.30;99.90
